createdAt,value
2023-03-27T00:01:13.355Z,100.00
2023-03-27T00:03:41.232Z,100.00
2023-03-27T00:06:17.557Z,100.00
2023-03-27T00:08:46.554Z,100.00
2023-03-27T00:11:15.298Z,100.00
2023-03-27T00:13:49.752Z,100.00
2023-03-27T00:16:22.027Z,98.70
2023-03-27T00:18:49.180Z,98.33
2023-03-27T00:21:16.649Z,100.00
2023-03-27T00:23:43.539Z,100.00
2023-03-27T00:26:12.254Z,99.97
2023-03-27T00:28:39.693Z,99.63
2023-03-27T00:31:14.105Z,100.00
2023-03-27T00:33:42.477Z,100.00
2023-03-27T00:36:10.397Z,100.00
2023-03-27T00:38:39.719Z,100.00
2023-03-27T00:41:07.659Z,100.00
2023-03-27T00:43:36.849Z,100.00
2023-03-27T00:46:15.868Z,100.00
2023-03-27T00:48:47.211Z,100.00
2023-03-27T00:51:16.003Z,100.00
2023-03-27T00:53:44.461Z,100.00
2023-03-27T00:56:11.962Z,100.00
2023-03-27T00:58:46.777Z,100.00
2023-03-27T01:01:15.985Z,100.00
2023-03-27T01:03:47.268Z,100.00
2023-03-27T01:06:17.166Z,100.00
2023-03-27T01:08:46.899Z,100.00
2023-03-27T01:11:39.230Z,100.00
2023-03-27T01:14:24.373Z,100.00
2023-03-27T01:17:00.417Z,100.00
2023-03-27T01:19:50.027Z,100.00
2023-03-27T01:22:29.514Z,96.81
2023-03-27T01:25:17.661Z,99.31
2023-03-27T01:28:10.710Z,99.43
2023-03-27T01:30:50.677Z,100.00
2023-03-27T01:33:41.423Z,100.00
2023-03-27T01:36:56.015Z,100.00
2023-03-27T01:39:47.469Z,97.34
2023-03-27T01:42:31.503Z,98.66
2023-03-27T01:45:16.194Z,98.84
2023-03-27T01:47:54.253Z,98.14
2023-03-27T01:50:28.840Z,100.00
2023-03-27T01:53:02.284Z,99.23
2023-03-27T01:55:34.664Z,99.24
2023-03-27T01:58:09.378Z,97.39
2023-03-27T02:00:52.123Z,97.46
2023-03-27T02:03:22.789Z,98.91
2023-03-27T02:05:59.022Z,96.73
2023-03-27T02:08:34.232Z,96.78
2023-03-27T02:11:17.664Z,97.10
2023-03-27T02:13:54.973Z,93.35
2023-03-27T02:16:33.989Z,92.68
2023-03-27T02:19:05.033Z,93.69
2023-03-27T02:21:32.893Z,94.68
2023-03-27T02:24:02.564Z,94.18
2023-03-27T02:26:30.519Z,93.09
2023-03-27T02:29:16.001Z,93.76
2023-03-27T02:31:58.997Z,94.75
2023-03-27T02:34:32.275Z,94.62
2023-03-27T02:37:09.463Z,95.85
2023-03-27T02:40:14.024Z,98.61
2023-03-27T02:43:03.055Z,99.03
2023-03-27T02:45:49.001Z,98.59
2023-03-27T02:48:31.847Z,100.00
2023-03-27T02:51:07.690Z,100.00
2023-03-27T02:53:45.155Z,100.00
2023-03-27T02:56:15.289Z,100.00
2023-03-27T02:58:50.175Z,100.00
2023-03-27T03:01:32.619Z,100.00
2023-03-27T03:04:16.856Z,100.00
2023-03-27T03:07:06.953Z,100.00
2023-03-27T03:09:34.782Z,100.00
2023-03-27T03:12:09.067Z,100.00
2023-03-27T03:14:46.020Z,100.00
2023-03-27T03:17:14.099Z,100.00
2023-03-27T03:19:41.304Z,100.00
2023-03-27T03:22:09.022Z,100.00
2023-03-27T03:24:37.627Z,100.00
2023-03-27T03:27:05.893Z,100.00
2023-03-27T03:29:44.323Z,100.00
2023-03-27T03:32:16.929Z,100.00
2023-03-27T03:34:48.344Z,100.00
2023-03-27T03:37:16.096Z,100.00
2023-03-27T03:39:43.085Z,100.00
2023-03-27T03:42:10.269Z,100.00
2023-03-27T03:44:51.672Z,100.00
2023-03-27T03:47:20.696Z,100.00
2023-03-27T03:49:47.913Z,100.00
2023-03-27T03:52:14.944Z,100.00
2023-03-27T03:54:42.093Z,100.00
2023-03-27T03:57:09.090Z,100.00
2023-03-27T03:59:36.375Z,100.00
2023-03-27T04:02:30.809Z,100.00
2023-03-27T04:05:08.727Z,100.00
2023-03-27T04:07:37.322Z,100.00
2023-03-27T04:10:18.989Z,100.00
2023-03-27T04:12:47.694Z,100.00
2023-03-27T04:15:19.255Z,100.00
2023-03-27T04:18:09.297Z,100.00
2023-03-27T04:20:38.307Z,100.00
2023-03-27T04:23:10.295Z,100.00
2023-03-27T04:25:40.388Z,100.00
2023-03-27T04:28:10.475Z,100.00
2023-03-27T04:30:45.023Z,100.00
2023-03-27T04:33:23.100Z,100.00
2023-03-27T04:36:06.396Z,100.00
2023-03-27T04:38:59.858Z,100.00
2023-03-27T04:41:29.802Z,100.00
2023-03-27T04:43:57.128Z,100.00
2023-03-27T04:46:24.033Z,100.00
2023-03-27T04:48:57.723Z,100.00
2023-03-27T04:51:46.322Z,100.00
2023-03-27T04:54:16.955Z,100.00
2023-03-27T04:56:46.662Z,92.18
2023-03-27T04:59:15.741Z,81.98
2023-03-27T05:01:46.968Z,77.46
2023-03-27T05:04:26.630Z,83.79
2023-03-27T05:07:08.059Z,81.21
2023-03-27T05:09:35.215Z,80.39
2023-03-27T05:12:02.070Z,80.41
2023-03-27T05:14:34.726Z,81.09
2023-03-27T05:17:02.452Z,82.84
2023-03-27T05:19:29.652Z,78.09
2023-03-27T05:21:59.414Z,74.95
2023-03-27T05:24:27.304Z,72.88
2023-03-27T05:26:54.260Z,66.02
2023-03-27T05:29:21.445Z,62.11
2023-03-27T05:32:01.215Z,61.96
2023-03-27T05:34:54.736Z,56.22
2023-03-27T05:37:24.575Z,57.87
2023-03-27T05:40:15.321Z,62.16
2023-03-27T05:42:46.382Z,68.19
2023-03-27T05:45:14.506Z,75.86
2023-03-27T05:47:53.856Z,79.40
2023-03-27T05:50:25.620Z,80.58
2023-03-27T05:52:58.739Z,84.18
2023-03-27T05:55:32.822Z,85.67
2023-03-27T05:58:00.586Z,85.89
2023-03-27T06:00:31.972Z,85.50
2023-03-27T06:03:01.379Z,83.35
2023-03-27T06:05:46.709Z,77.98
2023-03-27T06:08:14.070Z,78.87
2023-03-27T06:10:44.024Z,78.38
2023-03-27T06:13:24.227Z,81.65
2023-03-27T06:16:03.616Z,88.24
2023-03-27T06:18:56.530Z,87.73
2023-03-27T06:21:25.027Z,90.99
2023-03-27T06:23:58.000Z,94.33
2023-03-27T06:26:28.215Z,100.00
2023-03-27T06:28:57.887Z,90.96
2023-03-27T06:31:27.273Z,93.60
2023-03-27T06:34:08.718Z,89.85
2023-03-27T06:36:55.959Z,84.78
2023-03-27T06:39:22.884Z,78.32
2023-03-27T06:41:52.056Z,75.68
2023-03-27T06:44:51.729Z,70.87
2023-03-27T06:47:51.650Z,64.78
2023-03-27T06:50:39.465Z,64.44
2023-03-27T06:53:19.612Z,64.70
2023-03-27T06:55:51.352Z,63.39
2023-03-27T06:58:19.387Z,57.12
2023-03-27T07:00:49.808Z,50.26
2023-03-27T07:03:18.070Z,47.24
2023-03-27T07:06:03.949Z,46.24
2023-03-27T07:08:42.398Z,42.25
2023-03-27T07:11:12.244Z,45.47
2023-03-27T07:14:01.429Z,43.25
2023-03-27T07:16:30.370Z,41.40
2023-03-27T07:18:58.915Z,44.92
2023-03-27T07:21:41.566Z,44.08
2023-03-27T07:24:15.058Z,40.23
2023-03-27T07:40:09.165Z,54.52
2023-03-27T07:42:37.583Z,59.39
2023-03-27T07:45:07.880Z,60.54
2023-03-27T07:47:34.812Z,58.52
2023-03-27T07:50:01.769Z,59.59
2023-03-27T07:52:29.609Z,54.70
2023-03-27T07:54:59.102Z,50.30
2023-03-27T07:57:54.935Z,44.61
2023-03-27T08:00:25.982Z,44.71
2023-03-27T08:03:07.398Z,47.05
2023-03-27T08:05:35.458Z,44.65
2023-03-27T08:08:12.778Z,44.44
2023-03-27T08:10:47.407Z,44.56
2023-03-27T08:13:16.962Z,41.25
2023-03-27T08:15:44.033Z,40.38
2023-03-27T08:18:21.130Z,42.65
2023-03-27T08:20:48.497Z,43.58
2023-03-27T08:23:15.382Z,48.52
2023-03-27T08:26:01.208Z,49.85
2023-03-27T08:28:36.205Z,50.62
2023-03-27T08:31:13.053Z,49.26
2023-03-27T08:33:42.114Z,45.73
2023-03-27T08:36:17.046Z,45.25
2023-03-27T08:38:47.858Z,46.73
2023-03-27T08:41:33.834Z,49.79
2023-03-27T08:44:16.387Z,46.23
2023-03-27T08:46:46.952Z,45.91
2023-03-27T08:49:19.583Z,45.92
2023-03-27T08:52:15.964Z,43.79
2023-03-27T08:54:51.497Z,42.99
2023-03-27T08:57:24.973Z,43.14
2023-03-27T09:00:01.265Z,44.37
2023-03-27T09:03:12.167Z,49.07
2023-03-27T09:05:56.809Z,54.78
2023-03-27T09:08:46.500Z,49.58
2023-03-27T09:11:21.811Z,50.91
2023-03-27T09:13:57.988Z,52.44
2023-03-27T09:16:31.325Z,55.04
2023-03-27T09:19:12.436Z,60.01
2023-03-27T09:22:04.450Z,62.04
2023-03-27T09:24:54.299Z,66.27
2023-03-27T09:27:45.081Z,69.12
2023-03-27T09:30:37.627Z,60.79
2023-03-27T09:33:27.763Z,60.72
2023-03-27T09:35:56.558Z,60.81
2023-03-27T09:38:38.215Z,60.59
2023-03-27T09:41:16.415Z,59.02
2023-03-27T09:44:01.139Z,55.99
2023-03-27T09:46:29.382Z,51.23
2023-03-27T09:49:27.437Z,51.06
2023-03-27T09:52:02.649Z,46.64
2023-03-27T09:54:54.336Z,50.41
2023-03-27T09:57:33.989Z,48.86
2023-03-27T10:00:25.145Z,43.74
2023-03-27T10:03:14.042Z,41.90
2023-03-27T10:05:47.048Z,41.29
2023-03-27T10:08:37.915Z,39.21
2023-03-27T10:11:26.652Z,37.36
2023-03-27T10:14:01.804Z,35.22
2023-03-27T10:16:30.037Z,37.65
2023-03-27T10:19:05.226Z,39.27
2023-03-27T10:21:44.229Z,36.21
2023-03-27T10:24:27.955Z,37.95
2023-03-27T10:27:05.138Z,45.23
2023-03-27T10:29:35.116Z,42.70
2023-03-27T10:32:05.327Z,45.84
2023-03-27T10:35:03.292Z,50.95
2023-03-27T10:37:51.520Z,54.55
2023-03-27T10:40:39.321Z,56.56
2023-03-27T10:43:38.036Z,46.57
2023-03-27T10:46:17.325Z,43.55
2023-03-27T10:49:08.657Z,43.41
2023-03-27T10:51:54.331Z,42.32
2023-03-27T10:54:54.166Z,45.24
2023-03-27T10:57:34.235Z,46.83
2023-03-27T11:00:22.713Z,46.79
2023-03-27T11:03:30.825Z,45.82
2023-03-27T11:06:06.855Z,49.58
2023-03-27T11:08:53.158Z,49.83
2023-03-27T11:11:30.286Z,58.25
2023-03-27T11:14:03.899Z,61.71
2023-03-27T11:16:37.796Z,60.26
2023-03-27T11:19:54.803Z,60.93
2023-03-27T11:22:33.246Z,60.49
2023-03-27T11:25:18.534Z,64.36
2023-03-27T11:27:56.087Z,65.84
2023-03-27T11:30:33.354Z,65.24
2023-03-27T11:33:01.906Z,61.40
2023-03-27T11:35:37.077Z,58.98
2023-03-27T11:38:38.695Z,60.82
2023-03-27T11:41:08.196Z,63.24
2023-03-27T11:43:39.246Z,65.72
2023-03-27T11:46:54.780Z,66.27
2023-03-27T11:49:47.934Z,69.60
2023-03-27T11:52:36.531Z,69.83
2023-03-27T11:55:07.671Z,69.50
2023-03-27T11:58:12.150Z,70.52
2023-03-27T12:00:55.914Z,72.04
2023-03-27T12:04:03.618Z,72.06
2023-03-27T12:10:28.381Z,73.45
2023-03-27T12:13:41.913Z,73.75
2023-03-27T12:16:29.714Z,72.91
2023-03-27T12:19:29.680Z,73.05
2023-03-27T12:22:27.889Z,71.99
2023-03-27T12:25:20.277Z,71.75
2023-03-27T12:28:48.357Z,71.30
2023-03-27T12:32:03.637Z,72.51
2023-03-27T12:34:54.424Z,73.31
2023-03-27T12:37:31.067Z,71.82
2023-03-27T12:40:00.767Z,72.30
2023-03-27T12:42:49.940Z,72.19
2023-03-27T12:45:19.654Z,72.33
2023-03-27T12:48:26.167Z,71.98
2023-03-27T12:50:53.687Z,71.73
2023-03-27T12:53:41.136Z,71.74
2023-03-27T12:56:13.385Z,69.25
2023-03-27T12:58:41.543Z,69.69
2023-03-27T13:01:26.601Z,69.95
2023-03-27T13:04:24.455Z,71.60
2023-03-27T13:07:25.380Z,73.10
2023-03-27T13:10:17.251Z,72.39
2023-03-27T13:12:55.912Z,70.58
2023-03-27T13:15:38.041Z,70.12
2023-03-27T13:18:07.230Z,70.38
2023-03-27T13:20:45.603Z,70.31
2023-03-27T13:23:40.744Z,71.60
2023-03-27T13:26:25.347Z,71.44
2023-03-27T13:28:56.549Z,71.70
2023-03-27T13:31:47.236Z,71.50
2023-03-27T13:34:27.009Z,71.76
2023-03-27T13:37:12.112Z,69.78
2023-03-27T13:39:47.376Z,69.00
2023-03-27T13:42:27.944Z,69.15
2023-03-27T13:44:58.032Z,68.59
2023-03-27T13:47:46.493Z,67.48
2023-03-27T13:50:34.988Z,67.37
2023-03-27T13:53:08.110Z,67.45
2023-03-27T13:56:37.159Z,66.91
2023-03-27T13:59:52.278Z,67.05
2023-03-27T14:02:54.233Z,66.71
2023-03-27T14:05:48.162Z,67.54
2023-03-27T14:08:21.651Z,68.27
2023-03-27T14:11:24.967Z,68.50
2023-03-27T14:14:18.758Z,69.57
2023-03-27T14:17:11.267Z,70.49
2023-03-27T14:20:06.869Z,70.69
2023-03-27T14:23:14.209Z,70.36
2023-03-27T14:26:01.951Z,70.69
2023-03-27T14:28:42.380Z,71.22
2023-03-27T14:31:18.955Z,71.84
2023-03-27T14:34:04.314Z,72.14
2023-03-27T14:36:34.756Z,73.27
2023-03-27T14:39:31.451Z,73.53
2023-03-27T14:42:16.980Z,73.41
2023-03-27T14:44:48.491Z,74.23
2023-03-27T14:47:18.751Z,74.45
2023-03-27T14:49:50.733Z,74.84
2023-03-27T14:52:37.820Z,75.57
2023-03-27T14:55:32.475Z,75.19
2023-03-27T14:58:19.530Z,74.95
2023-03-27T15:00:54.809Z,76.05
2023-03-27T15:03:26.273Z,76.49
2023-03-27T15:06:02.253Z,77.22
2023-03-27T15:08:39.825Z,78.12
2023-03-27T15:11:21.747Z,78.22
2023-03-27T15:13:56.325Z,79.41
2023-03-27T15:16:35.761Z,78.91
2023-03-27T15:19:12.400Z,79.70
2023-03-27T15:22:03.952Z,79.88
2023-03-27T15:24:43.561Z,80.60
2023-03-27T15:27:32.886Z,81.20
2023-03-27T15:30:03.859Z,82.15
2023-03-27T15:32:42.731Z,82.39
2023-03-27T15:35:18.279Z,82.94
2023-03-27T15:37:45.546Z,83.85
2023-03-27T15:40:15.759Z,83.99
2023-03-27T15:42:54.396Z,85.57
2023-03-27T15:45:24.289Z,86.48
2023-03-27T15:48:01.120Z,87.23
2023-03-27T15:50:28.198Z,87.83
2023-03-27T15:52:58.304Z,87.44
2023-03-27T15:55:44.336Z,87.97
2023-03-27T15:58:24.655Z,88.24
2023-03-27T16:00:58.157Z,88.36
2023-03-27T16:03:27.556Z,89.14
2023-03-27T16:05:58.373Z,89.89
2023-03-27T16:08:32.659Z,89.98
2023-03-27T16:11:00.621Z,89.92
2023-03-27T16:13:34.846Z,90.71
2023-03-27T16:16:20.849Z,91.38
2023-03-27T16:18:49.469Z,91.14
2023-03-27T16:21:16.389Z,91.58
2023-03-27T16:23:44.366Z,91.84
2023-03-27T16:26:21.374Z,91.99
2023-03-27T16:28:48.227Z,91.97
2023-03-27T16:31:18.205Z,92.79
2023-03-27T16:33:46.367Z,92.72
2023-03-27T16:36:16.134Z,92.39
2023-03-27T16:38:44.012Z,92.60
2023-03-27T16:41:15.919Z,93.23
2023-03-27T16:43:43.877Z,92.44
2023-03-27T16:46:18.839Z,93.26
2023-03-27T16:48:45.720Z,92.30
2023-03-27T16:51:12.635Z,92.30
2023-03-27T16:53:39.592Z,92.43
2023-03-27T16:56:07.451Z,93.21
2023-03-27T16:58:34.310Z,92.55
2023-03-27T17:01:01.612Z,93.07
2023-03-27T17:03:28.466Z,92.49
2023-03-27T17:06:03.130Z,92.42
2023-03-27T17:08:33.076Z,93.28
2023-03-27T17:11:08.523Z,92.94
2023-03-27T17:13:36.732Z,93.33
2023-03-27T17:16:05.366Z,93.13
2023-03-27T17:18:34.079Z,92.82
2023-03-27T17:21:00.964Z,92.62
2023-03-27T17:23:27.939Z,91.46
2023-03-27T17:25:55.030Z,91.93
2023-03-27T17:28:22.206Z,91.86
2023-03-27T17:30:57.044Z,92.04
2023-03-27T17:33:30.650Z,90.65
2023-03-27T17:35:58.024Z,93.94
2023-03-27T17:38:25.096Z,92.61
2023-03-27T17:40:52.409Z,87.24
2023-03-27T17:43:19.431Z,97.53
2023-03-27T17:45:46.385Z,93.14
2023-03-27T17:48:13.518Z,92.79
2023-03-27T17:50:40.586Z,98.03
2023-03-27T17:53:08.123Z,94.11
2023-03-27T17:55:37.210Z,94.11
2023-03-27T17:58:09.336Z,96.88
2023-03-27T18:00:38.575Z,92.82
2023-03-27T18:03:06.730Z,95.11
2023-03-27T18:05:41.529Z,92.69
2023-03-27T18:08:10.927Z,91.37
2023-03-27T18:10:44.021Z,94.06
2023-03-27T18:13:11.618Z,93.04
2023-03-27T18:15:40.911Z,92.87
2023-03-27T18:18:08.441Z,94.32
2023-03-27T18:20:35.864Z,92.40
2023-03-27T18:23:03.151Z,89.59
2023-03-27T18:25:30.460Z,91.58
2023-03-27T18:27:57.536Z,91.14
2023-03-27T18:30:24.582Z,89.52
2023-03-27T18:32:51.531Z,91.17
2023-03-27T18:35:20.371Z,91.43
2023-03-27T18:37:47.544Z,92.01
2023-03-27T18:40:17.094Z,92.67
2023-03-27T18:42:44.163Z,91.29
2023-03-27T18:45:13.206Z,92.98
2023-03-27T18:47:41.870Z,93.20
2023-03-27T18:50:13.759Z,93.69
2023-03-27T18:52:41.301Z,93.77
2023-03-27T18:55:09.594Z,94.90
2023-03-27T18:57:36.582Z,95.93
2023-03-27T19:00:07.430Z,96.25
2023-03-27T19:02:36.422Z,95.86
2023-03-27T19:05:04.448Z,95.91
2023-03-27T19:07:31.473Z,95.16
2023-03-27T19:09:58.856Z,94.99
2023-03-27T19:12:36.703Z,94.60
2023-03-27T19:15:33.808Z,93.87
2023-03-27T19:18:19.127Z,93.58
2023-03-27T19:21:06.061Z,92.86
2023-03-27T19:24:01.808Z,93.26
2023-03-27T19:26:35.547Z,93.20
2023-03-27T19:41:52.019Z,99.92
2023-03-27T19:44:21.198Z,100.00
2023-03-27T19:46:48.251Z,100.00
2023-03-27T19:49:16.322Z,100.00
2023-03-27T19:51:48.763Z,100.00
2023-03-27T19:54:16.270Z,100.00
2023-03-27T19:56:43.354Z,100.00
2023-03-27T19:59:15.328Z,100.00
2023-03-27T20:01:51.328Z,100.00
2023-03-27T20:04:18.461Z,100.00
2023-03-27T20:06:47.050Z,100.00
2023-03-27T20:09:14.730Z,100.00
2023-03-27T20:11:41.973Z,100.00
2023-03-27T20:14:11.919Z,100.00
2023-03-27T20:16:39.495Z,100.00
2023-03-27T20:19:06.944Z,100.00
2023-03-27T20:21:41.068Z,100.00
2023-03-27T20:24:13.817Z,100.00
2023-03-27T20:26:48.502Z,100.00
2023-03-27T20:29:23.854Z,100.00
2023-03-27T20:31:50.984Z,100.00
2023-03-27T20:34:19.747Z,100.00
2023-03-27T20:36:47.548Z,100.00
2023-03-27T20:39:28.422Z,100.00
2023-03-27T20:41:59.192Z,100.00
2023-03-27T20:44:35.261Z,100.00
2023-03-27T20:47:21.428Z,100.00
2023-03-27T20:49:48.484Z,100.00
2023-03-27T20:52:19.755Z,100.00
2023-03-27T20:54:48.055Z,100.00
2023-03-27T20:57:17.565Z,100.00
2023-03-27T20:59:46.986Z,100.00
2023-03-27T21:02:19.490Z,100.00
2023-03-27T21:04:47.527Z,100.00
2023-03-27T21:07:16.000Z,100.00
2023-03-27T21:09:45.685Z,100.00
2023-03-27T21:12:12.863Z,100.00
2023-03-27T21:14:39.754Z,100.00
2023-03-27T21:17:06.637Z,100.00
2023-03-27T21:19:33.400Z,100.00
2023-03-27T21:22:00.495Z,100.00
2023-03-27T21:24:27.366Z,100.00
2023-03-27T21:26:54.364Z,100.00
2023-03-27T21:29:21.446Z,100.00
2023-03-27T21:31:48.453Z,100.00
2023-03-27T21:34:15.584Z,100.00
2023-03-27T21:36:42.516Z,100.00
2023-03-27T21:39:10.033Z,100.00
2023-03-27T21:41:36.956Z,100.00
2023-03-27T21:44:03.901Z,100.00
2023-03-27T21:46:30.857Z,100.00
2023-03-27T21:48:57.802Z,100.00
2023-03-27T21:51:24.704Z,100.00
2023-03-27T21:53:53.178Z,100.00
2023-03-27T21:56:20.099Z,100.00
2023-03-27T21:58:46.948Z,100.00
2023-03-27T22:01:13.972Z,100.00
2023-03-27T22:03:40.794Z,100.00
2023-03-27T22:06:12.913Z,100.00
2023-03-27T22:08:42.014Z,100.00
2023-03-27T22:11:10.220Z,100.00
2023-03-27T22:13:38.249Z,100.00
2023-03-27T22:16:13.930Z,100.00
2023-03-27T22:18:41.410Z,100.00
2023-03-27T22:21:28.921Z,100.00
2023-03-27T22:23:57.713Z,100.00
2023-03-27T22:26:31.206Z,100.00
2023-03-27T22:28:58.270Z,100.00
2023-03-27T22:31:27.154Z,100.00
2023-03-27T22:33:54.092Z,100.00
2023-03-27T22:36:21.332Z,100.00
2023-03-27T22:38:48.829Z,100.00
2023-03-27T22:41:16.040Z,100.00
2023-03-27T22:43:42.944Z,100.00
2023-03-27T22:46:15.321Z,100.00
2023-03-27T22:48:43.419Z,100.00
2023-03-27T22:51:12.219Z,100.00
2023-03-27T22:53:39.896Z,100.00
2023-03-27T22:56:07.812Z,100.00
2023-03-27T22:58:34.769Z,100.00
2023-03-27T23:01:01.942Z,100.00
2023-03-27T23:03:29.173Z,100.00
2023-03-27T23:05:57.342Z,100.00
2023-03-27T23:08:29.651Z,100.00
2023-03-27T23:11:01.346Z,100.00
2023-03-27T23:13:30.075Z,100.00
2023-03-27T23:15:57.771Z,100.00
2023-03-27T23:18:25.479Z,100.00
2023-03-27T23:20:56.202Z,100.00
2023-03-27T23:23:24.012Z,100.00
2023-03-27T23:25:51.042Z,100.00
2023-03-27T23:28:18.240Z,100.00
2023-03-27T23:31:10.358Z,100.00
2023-03-27T23:33:40.077Z,100.00
2023-03-27T23:36:11.441Z,100.00
2023-03-27T23:38:39.121Z,100.00
2023-03-27T23:41:07.424Z,100.00
2023-03-27T23:43:35.002Z,100.00
2023-03-27T23:46:04.082Z,100.00
2023-03-27T23:48:31.936Z,100.00
2023-03-27T23:50:58.889Z,100.00
2023-03-27T23:53:27.263Z,100.00
2023-03-27T23:55:56.341Z,100.00
2023-03-27T23:58:24.243Z,100.00
